Appley Bridge, United Kingdom
Current Conditions -  °F | °C
As of 5:20 AM on Saturday 29 Nov 2014 (Local Time) from EGGP Reporting Station
Broken Clouds Broken Clouds  
Wind Chill: 45°   Ceiling: 1500
Heat Index: 48°   Visibility: 6mi
Dew Point: 46°   Wind: 7mph
Humidity: 93%   Direction: 100°E
Pressure: 29.8"   Gusts: NA
Location:  53.58°N, 2.72°W
Report Text: EGGP 290520Z 10006KT 9999 BKN015 09/08 Q1009
Loading
Personal Weather Stations






























Interactive Weather Map New forecast layout! Learn more

10-Day Weather Forecast

Advertisements
Track Severe Weather on mobile